Lorraine — A8IZ3 — position and weather

sailwx.info

Track history (hours):
 
Tides and Currents Weather Stations Pressure Air Temp Water Temp Dewpoint Dewpoint Depression Visibility Wind Speed Wind Dir Waves Ship Positions

Lorraine

Last reported at 2014-Nov-08 04:13 UTC. Time now 2014-Nov-22 14:25 UTC.
Position N 35°58' W 005°35'.
Warning: this ship's position is 14 days out of date.

Length 221 m; draft 10.9 m.

Type: Ship. MMSI: 636012905.

Date/timePositionNaut miles runAvg speedWind from/ knotsBaromVisibWave heightAir tempDewpointWater temp
2014-Nov-08 04:13N 35°58' W 005°35'6 8.7
2014-Nov-08 03:34N 35°60' W 005°28'8 8.2
2014-Nov-08 02:34N 36°07' W 005°24'2 1.1
2014-Nov-08 00:20N 36°09' W 005°26'0 0.0
2014-Nov-07 23:32N 36°09' W 005°26'0 0.0
2014-Nov-07 22:32N 36°09' W 005°26'0 0.0
2014-Nov-07 21:31N 36°09' W 005°26'0 0.0
2014-Nov-07 20:31N 36°09' W 005°26'0 0.0
2014-Nov-07 19:33N 36°09' W 005°26'0 0.0
2014-Nov-07 18:30N 36°09' W 005°26'0 0.0
2014-Nov-07 17:32N 36°09' W 005°26'0 0.0
2014-Nov-07 16:32N 36°09' W 005°26'0 0.0
2014-Nov-07 15:32N 36°09' W 005°26'0 0.0
2014-Nov-07 14:22N 36°09' W 005°26'0 0.0
2014-Nov-07 13:19N 36°09' W 005°26'0 0.0
2014-Nov-07 12:33N 36°09' W 005°26'0 0.0
2014-Nov-07 11:15N 36°09' W 005°26'0 0.0
2014-Nov-07 10:08N 36°09' W 005°26'0 0.0
2014-Nov-07 09:32N 36°09' W 005°26'0 0.0
2014-Nov-07 08:32N 36°09' W 005°26'0 0.0
2014-Nov-07 07:31N 36°09' W 005°26'0 0.0
2014-Nov-07 06:28N 36°09' W 005°26'0 0.0
2014-Nov-07 05:33N 36°09' W 005°26'0 0.0
2014-Nov-07 04:33N 36°09' W 005°26'2 1.9
2014-Nov-07 03:33N 36°08' W 005°24'6 5.7
2014-Nov-07 02:33N 36°05' W 005°18'3 2.7
2014-Nov-07 01:33N 36°07' W 005°16'1 0.6
2014-Nov-07 00:33N 36°06' W 005°15'1 1.1
2014-Nov-06 23:33N 36°06' W 005°16'2 2.3
2014-Nov-06 22:33N 36°05' W 005°19'7 7.3
2014-Nov-06 21:33N 36°04' W 005°10'  
2014-Nov-04 08:27N 38°38' E 008°27'1213.4
2014-Nov-04 07:33N 38°42' E 008°42'1312.9
2014-Nov-04 06:33N 38°47' E 008°57'1010.5
2014-Nov-04 05:33N 38°56' E 009°05'1111.0
2014-Nov-04 04:33N 39°06' E 009°07'7 6.5
2014-Nov-04 03:31N 39°13' E 009°04'0 0.0
2014-Nov-04 02:31N 39°13' E 009°04'0 0.0
2014-Nov-04 01:33N 39°13' E 009°04'0 0.0
2014-Nov-04 00:33N 39°13' E 009°04'0 0.0
2014-Nov-03 23:32N 39°13' E 009°04'0 0.0
2014-Nov-03 22:32N 39°13' E 009°04'0 0.0
2014-Nov-03 21:31N 39°13' E 009°04'0 0.0
2014-Nov-03 20:31N 39°13' E 009°04'0 0.0
2014-Nov-03 19:31N 39°13' E 009°04'0 0.0
2014-Nov-03 19:06N 39°13' E 009°04'0 0.0
2014-Nov-03 18:33N 39°13' E 009°04'0 0.0
2014-Nov-03 18:12N 39°13' E 009°04'0 0.0
2014-Nov-03 17:48N 39°13' E 009°04'0 0.0
2014-Nov-03 17:33N 39°13' E 009°04'0 0.0
2014-Nov-03 16:32N 39°13' E 009°04'0 0.0
2014-Nov-03 14:31N 39°13' E 009°04'0 0.0
2014-Nov-03 13:31N 39°13' E 009°04'0 0.0
2014-Nov-03 12:31N 39°13' E 009°04'0 0.2
2014-Nov-03 11:33N 39°13' E 009°04'9 9.0
2014-Nov-03 10:33N 39°05' E 009°11'1716.2
2014-Nov-03 09:32N 38°56' E 009°28'24117.1
2014-Nov-02 19:26N 36°49' E 013°48'1416.0
2014-Nov-02 18:32N 36°42' E 014°03'1515.7
2014-Nov-02 17:33N 36°34' E 014°20'44315.0
2014-Nov-01 12:07N 36°46' E 023°32'915.6
2014-Nov-01 11:32N 36°54' E 023°38'3115.5
2014-Nov-01 09:32N 37°20' E 023°58'1515.5
2014-Nov-01 08:33N 37°34' E 024°07'1715.9
2014-Nov-01 07:31N 37°46' E 024°21'3216.0
2014-Nov-01 05:30N 38°06' E 024°53'1515.7
2014-Nov-01 04:33N 38°14' E 025°09'38 1.0
2014-Oct-30 14:33N 37°51' E 025°47'1717.6
2014-Oct-30 13:33N 37°33' E 025°50'1717.5
2014-Oct-30 12:33N 37°17' E 025°58'1717.3
2014-Oct-30 11:33N 37°02' E 026°09'1717.2
2014-Oct-30 10:33N 36°49' E 026°23'1817.9
2014-Oct-30 09:33N 36°36' E 026°39'2117.7
2014-Oct-30 08:22N 36°21' E 026°56'  
Track history (hours):
 
Tides and Currents Weather Stations Pressure Air Temp Water Temp Dewpoint Dewpoint Depression Visibility Wind Speed Wind Dir Waves Ship Positions

Lorraine

Last reported at 2014-Nov-08 04:13 UTC. Time now 2014-Nov-22 14:25 UTC.
Position N 35°58' W 005°35'.
Warning: this ship's position is 14 days out of date.

Length 221 m; draft 10.9 m.

Type: Ship. MMSI: 636012905.

Date/timePositionNaut miles runAvg speedWind from/ knotsBaromVisibWave heightAir tempDewpointWater temp
2014-Nov-08 04:13N 35°58' W 005°35'6 8.7
2014-Nov-08 03:34N 35°60' W 005°28'8 8.2
2014-Nov-08 02:34N 36°07' W 005°24'2 1.1
2014-Nov-08 00:20N 36°09' W 005°26'0 0.0
2014-Nov-07 23:32N 36°09' W 005°26'0 0.0
2014-Nov-07 22:32N 36°09' W 005°26'0 0.0
2014-Nov-07 21:31N 36°09' W 005°26'0 0.0
2014-Nov-07 20:31N 36°09' W 005°26'0 0.0
2014-Nov-07 19:33N 36°09' W 005°26'0 0.0
2014-Nov-07 18:30N 36°09' W 005°26'0 0.0
2014-Nov-07 17:32N 36°09' W 005°26'0 0.0
2014-Nov-07 16:32N 36°09' W 005°26'0 0.0
2014-Nov-07 15:32N 36°09' W 005°26'0 0.0
2014-Nov-07 14:22N 36°09' W 005°26'0 0.0
2014-Nov-07 13:19N 36°09' W 005°26'0 0.0
2014-Nov-07 12:33N 36°09' W 005°26'0 0.0
2014-Nov-07 11:15N 36°09' W 005°26'0 0.0
2014-Nov-07 10:08N 36°09' W 005°26'0 0.0
2014-Nov-07 09:32N 36°09' W 005°26'0 0.0
2014-Nov-07 08:32N 36°09' W 005°26'0 0.0
2014-Nov-07 07:31N 36°09' W 005°26'0 0.0
2014-Nov-07 06:28N 36°09' W 005°26'0 0.0
2014-Nov-07 05:33N 36°09' W 005°26'0 0.0
2014-Nov-07 04:33N 36°09' W 005°26'2 1.9
2014-Nov-07 03:33N 36°08' W 005°24'6 5.7
2014-Nov-07 02:33N 36°05' W 005°18'3 2.7
2014-Nov-07 01:33N 36°07' W 005°16'1 0.6
2014-Nov-07 00:33N 36°06' W 005°15'1 1.1
2014-Nov-06 23:33N 36°06' W 005°16'2 2.3
2014-Nov-06 22:33N 36°05' W 005°19'7 7.3
2014-Nov-06 21:33N 36°04' W 005°10'  
2014-Nov-04 08:27N 38°38' E 008°27'1213.4
2014-Nov-04 07:33N 38°42' E 008°42'1312.9
2014-Nov-04 06:33N 38°47' E 008°57'1010.5
2014-Nov-04 05:33N 38°56' E 009°05'1111.0
2014-Nov-04 04:33N 39°06' E 009°07'7 6.5
2014-Nov-04 03:31N 39°13' E 009°04'0 0.0
2014-Nov-04 02:31N 39°13' E 009°04'0 0.0
2014-Nov-04 01:33N 39°13' E 009°04'0 0.0
2014-Nov-04 00:33N 39°13' E 009°04'0 0.0
2014-Nov-03 23:32N 39°13' E 009°04'0 0.0
2014-Nov-03 22:32N 39°13' E 009°04'0 0.0
2014-Nov-03 21:31N 39°13' E 009°04'0 0.0
2014-Nov-03 20:31N 39°13' E 009°04'0 0.0
2014-Nov-03 19:31N 39°13' E 009°04'0 0.0
2014-Nov-03 19:06N 39°13' E 009°04'0 0.0
2014-Nov-03 18:33N 39°13' E 009°04'0 0.0
2014-Nov-03 18:12N 39°13' E 009°04'0 0.0
2014-Nov-03 17:48N 39°13' E 009°04'0 0.0
2014-Nov-03 17:33N 39°13' E 009°04'0 0.0
2014-Nov-03 16:32N 39°13' E 009°04'0 0.0
2014-Nov-03 14:31N 39°13' E 009°04'0 0.0
2014-Nov-03 13:31N 39°13' E 009°04'0 0.0
2014-Nov-03 12:31N 39°13' E 009°04'0 0.2
2014-Nov-03 11:33N 39°13' E 009°04'9 9.0
2014-Nov-03 10:33N 39°05' E 009°11'1716.2
2014-Nov-03 09:32N 38°56' E 009°28'24117.1
2014-Nov-02 19:26N 36°49' E 013°48'1416.0
2014-Nov-02 18:32N 36°42' E 014°03'1515.7
2014-Nov-02 17:33N 36°34' E 014°20'44315.0
2014-Nov-01 12:07N 36°46' E 023°32'915.6
2014-Nov-01 11:32N 36°54' E 023°38'3115.5
2014-Nov-01 09:32N 37°20' E 023°58'1515.5
2014-Nov-01 08:33N 37°34' E 024°07'1715.9
2014-Nov-01 07:31N 37°46' E 024°21'3216.0
2014-Nov-01 05:30N 38°06' E 024°53'1515.7
2014-Nov-01 04:33N 38°14' E 025°09'38 1.0
2014-Oct-30 14:33N 37°51' E 025°47'1717.6
2014-Oct-30 13:33N 37°33' E 025°50'1717.5
2014-Oct-30 12:33N 37°17' E 025°58'1717.3
2014-Oct-30 11:33N 37°02' E 026°09'1717.2
2014-Oct-30 10:33N 36°49' E 026°23'1817.9
2014-Oct-30 09:33N 36°36' E 026°39'2117.7
2014-Oct-30 08:22N 36°21' E 026°56'  

Dump ship's entire track history